Time;durP1;ratioP1;P1;durP2;ratioP2;P2;SDS_P1;SDS_P2;PMS_P1;PMS_P2;Temp;Humidity;BMP_temperature;BMP_pressure;BME280_temperature;BME280_humidity;BME280_pressure;Samples;Min_cycle;Max_cycle;Signal;HPM_P1;HPM_P2
2023/08/08 00:00:46;;;;;;;6.07;2.53;;;;;;;14.07;100.00;99081.72;5052426;28;20040;-87
2023/08/08 00:03:11;;;;;;;9.48;3.03;;;;;;;14.42;100.00;99125.59;5034617;28;20036;-87
2023/08/08 00:05:36;;;;;;;4.90;3.08;;;;;;;14.41;100.00;99132.63;5052099;28;20465;-87
2023/08/08 00:08:02;;;;;;;7.70;3.30;;;;;;;14.27;100.00;99087.38;5052127;28;20147;-87
2023/08/08 00:10:27;;;;;;;4.93;2.53;;;;;;;14.57;100.00;99129.75;5033929;28;20090;-87
2023/08/08 00:12:53;;;;;;;5.90;2.88;;;;;;;14.65;100.00;99142.31;5034031;28;20626;-87
2023/08/08 00:15:18;;;;;;;6.03;2.88;;;;;;;14.50;100.00;99118.06;5051835;28;20029;-87
2023/08/08 00:17:43;;;;;;;7.03;2.47;;;;;;;14.51;100.00;99116.28;5052059;28;20032;-87
2023/08/08 00:20:09;;;;;;;5.55;3.20;;;;;;;14.54;100.00;99113.41;5034132;28;20057;-87
2023/08/08 00:22:35;;;;;;;9.13;3.42;;;;;;;14.64;100.00;99138.84;5051873;28;20029;-87
2023/08/08 00:25:00;;;;;;;4.72;2.55;;;;;;;14.57;100.00;99116.66;5051979;28;20033;-87
2023/08/08 00:27:25;;;;;;;4.13;2.50;;;;;;;14.70;100.00;99134.94;5033673;28;20064;-88
2023/08/08 00:29:53;;;;;;;5.20;2.75;;;;;;;14.48;100.00;99096.31;5034055;28;20032;-87
2023/08/08 00:32:18;;;;;;;6.63;3.20;;;;;;;14.49;100.00;99108.50;5051599;28;20511;-87
2023/08/08 00:34:43;;;;;;;3.50;2.35;;;;;;;14.48;100.00;99120.75;5033874;28;20064;-87
2023/08/08 00:37:09;;;;;;;5.60;2.97;;;;;;;14.55;100.00;99136.06;5051900;28;20463;-87
2023/08/08 00:39:34;;;;;;;5.68;2.70;;;;;;;14.52;100.00;99126.63;5033825;28;20060;-87
2023/08/08 00:41:59;;;;;;;3.35;2.50;;;;;;;14.54;100.00;99137.00;5034307;28;20033;-87
2023/08/08 00:44:24;;;;;;;3.88;2.97;;;;;;;14.53;100.00;99148.41;5052015;28;20025;-87
2023/08/08 00:46:50;;;;;;;6.88;3.08;;;;;;;14.39;99.97;99134.50;5034301;28;20049;-87
2023/08/08 00:49:15;;;;;;;11.63;2.70;;;;;;;14.19;100.00;99117.53;5052597;28;20040;-87
2023/08/08 00:51:41;;;;;;;8.88;2.90;;;;;;;14.36;100.00;99147.78;5034696;28;20024;-87
2023/08/08 00:54:07;;;;;;;3.83;2.47;;;;;;;14.36;100.00;99157.44;5034976;28;20124;-87
2023/08/08 00:56:33;;;;;;;6.25;3.47;;;;;;;13.81;100.00;99080.94;5059221;28;20025;-87
2023/08/08 00:58:58;;;;;;;7.68;2.65;;;;;;;14.23;100.00;99152.22;5048211;28;20029;-87
2023/08/08 01:01:23;;;;;;;6.30;3.47;;;;;;;14.16;100.00;99143.13;5066360;28;20039;-87
2023/08/08 01:03:49;;;;;;;7.03;2.90;;;;;;;14.15;100.00;99134.41;5067134;28;20127;-87
2023/08/08 01:06:24;;;;;;;4.00;2.47;;;;;;;14.19;100.00;99148.97;5051314;28;20040;-87
2023/08/08 01:09:06;;;;;;;5.43;2.88;;;;;;;14.02;100.00;99130.97;5045851;28;20052;-87
2023/08/08 01:11:34;;;;;;;4.18;2.28;;;;;;;14.04;100.00;99141.34;5034862;28;20103;-87
2023/08/08 01:14:02;;;;;;;4.88;2.33;;;;;;;14.00;100.00;99134.66;5029848;28;20064;-87
2023/08/08 01:16:29;;;;;;;4.68;2.30;;;;;;;14.03;100.00;99152.75;5012494;28;20045;-87
2023/08/08 01:18:56;;;;;;;5.50;2.70;;;;;;;13.93;100.00;99144.69;5012610;28;20034;-87
2023/08/08 01:21:24;;;;;;;6.78;3.08;;;;;;;13.87;100.00;99145.13;5029063;28;20030;-87
2023/08/08 01:23:55;;;;;;;7.60;2.72;;;;;;;13.76;100.00;99127.53;4989624;28;20076;-87
2023/08/08 01:26:22;;;;;;;6.95;3.05;;;;;;;13.84;100.00;99145.34;4989225;28;20030;-87
2023/08/08 01:28:47;;;;;;;7.78;3.00;;;;;;;13.55;100.00;99114.13;4989559;28;20141;-87
2023/08/08 01:31:12;;;;;;;5.97;3.10;;;;;;;13.78;100.00;99162.31;4989589;28;20117;-87
2023/08/08 01:33:38;;;;;;;3.45;2.88;;;;;;;13.53;100.00;99112.56;4989416;28;20054;-87
2023/08/08 01:36:21;;;;;;;4.43;2.70;;;;;;;13.72;100.00;99155.69;4973192;28;20508;-87
2023/08/08 01:38:48;;;;;;;3.92;2.60;;;;;;;13.56;100.00;99128.03;4990783;28;20039;-87
2023/08/08 01:41:15;;;;;;;5.20;3.08;;;;;;;13.64;100.00;99144.88;5009140;28;20152;-87
2023/08/08 01:43:41;;;;;;;4.47;2.47;;;;;;;13.69;100.00;99155.03;4992590;28;20042;-88
2023/08/08 01:46:07;;;;;;;3.25;2.17;;;;;;;13.56;100.00;99130.66;5010068;28;20026;-87
2023/08/08 01:48:32;;;;;;;10.98;3.47;;;;;;;13.48;100.00;99115.47;5012568;28;20061;-87
2023/08/08 01:50:58;;;;;;;4.82;2.30;;;;;;;13.57;100.00;99135.78;5012582;28;20026;-89
2023/08/08 01:53:23;;;;;;;5.97;2.60;;;;;;;13.52;100.00;99130.00;4996086;28;20030;-87
2023/08/08 01:55:49;;;;;;;4.07;2.42;;;;;;;13.29;100.00;99092.31;5034901;28;20098;-88
2023/08/08 01:58:15;;;;;;;4.70;2.85;;;;;;;13.34;100.00;99110.31;5054851;28;20483;-88
2023/08/08 02:00:44;;;;;;;7.10;2.90;;;;;;;13.54;100.00;99146.47;5036505;28;20025;-87
2023/08/08 02:03:10;;;;;;;3.85;2.45;;;;;;;13.47;100.00;99148.63;5036988;28;20032;-87
2023/08/08 02:05:35;;;;;;;7.88;2.97;;;;;;;13.23;100.00;99113.63;5036657;28;20052;-88
2023/08/08 02:08:01;;;;;;;4.05;2.70;;;;;;;13.43;100.00;99149.78;5036804;28;20029;-87
2023/08/08 02:10:26;;;;;;;5.22;2.75;;;;;;;13.41;100.00;99145.59;5054324;28;20487;-87
2023/08/08 02:12:51;;;;;;;4.28;2.60;;;;;;;13.30;100.00;99140.22;5054362;28;20098;-87
2023/08/08 02:15:17;;;;;;;6.22;3.05;;;;;;;13.33;100.00;99146.09;5036588;28;20113;-87
2023/08/08 02:17:42;;;;;;;4.35;2.80;;;;;;;13.35;100.00;99153.84;5036481;28;20037;-87
2023/08/08 02:20:08;;;;;;;5.38;3.10;;;;;;;13.13;100.00;99118.59;5031788;28;20507;-87
2023/08/08 02:22:34;;;;;;;6.28;3.28;;;;;;;13.29;100.00;99147.25;5031709;28;20049;-87
2023/08/08 02:24:59;;;;;;;6.43;2.97;;;;;;;12.99;100.00;99109.06;5031901;28;20038;-87
2023/08/08 02:27:24;;;;;;;5.35;3.10;;;;;;;13.21;100.00;99152.09;5011529;28;20040;-87
2023/08/08 02:29:50;;;;;;;5.95;2.72;;;;;;;13.10;100.00;99137.09;5011823;28;20050;-87
2023/08/08 02:32:15;;;;;;;7.43;2.95;;;;;;;13.01;100.00;99119.41;4995414;28;20042;-87
2023/08/08 02:34:41;;;;;;;4.85;2.92;;;;;;;12.91;100.00;99106.09;5011536;28;20053;-87
2023/08/08 02:37:06;;;;;;;6.13;2.55;;;;;;;12.94;100.00;99118.97;5011660;28;20050;-87
2023/08/08 02:39:31;;;;;;;5.60;2.67;;;;;;;13.10;100.00;99150.16;5011276;28;20034;-87
2023/08/08 02:41:57;;;;;;;4.63;2.90;;;;;;;12.74;100.00;99098.50;5011886;28;20096;-87
2023/08/08 02:44:22;;;;;;;4.85;2.63;;;;;;;13.06;100.00;99147.84;5011343;28;20033;-87
2023/08/08 02:46:48;;;;;;;4.28;2.55;;;;;;;13.04;100.00;99147.13;5011310;28;20417;-87
2023/08/08 02:49:14;;;;;;;13.18;3.67;;;;;;;12.76;100.00;99109.69;5011679;28;20036;-87
2023/08/08 02:51:39;;;;;;;4.45;3.03;;;;;;;13.02;100.00;99155.09;5025583;28;20046;-87
2023/08/08 02:54:04;;;;;;;5.80;2.65;;;;;;;12.87;100.00;99137.78;5031278;28;20037;-87
2023/08/08 02:56:30;;;;;;;5.70;2.60;;;;;;;12.65;100.00;99102.56;5014336;28;20060;-87
2023/08/08 02:58:55;;;;;;;7.28;3.90;;;;;;;12.81;100.00;99131.16;5031191;28;20123;-87
2023/08/08 03:01:21;;;;;;;3.65;2.95;;;;;;;12.77;100.00;99128.81;5031200;28;20121;-87
2023/08/08 03:03:47;;;;;;;6.07;2.65;;;;;;;12.94;100.00;99167.81;5015618;28;20112;-87
2023/08/08 03:06:12;;;;;;;3.95;2.80;;;;;;;12.94;100.00;99173.88;5053288;28;20032;-86
2023/08/08 03:08:38;;;;;;;3.97;3.13;;;;;;;12.83;100.00;99165.03;5053555;28;20112;-87
2023/08/08 03:11:03;;;;;;;5.55;3.30;;;;;;;12.64;100.00;99132.25;5035293;28;20056;-87
2023/08/08 03:13:28;;;;;;;5.82;3.30;;;;;;;12.65;100.00;99138.31;5053056;28;20069;-87
2023/08/08 03:15:54;;;;;;;6.00;2.50;;;;;;;12.82;100.00;99168.59;5053331;28;20032;-87
2023/08/08 03:18:19;;;;;;;5.72;3.17;;;;;;;12.58;100.00;99137.00;5053205;28;20035;-87
2023/08/08 03:20:45;;;;;;;4.85;2.72;;;;;;;12.74;100.00;99166.47;5053723;28;20031;-86
2023/08/08 03:23:10;;;;;;;7.72;3.13;;;;;;;12.72;100.00;99171.78;5053388;28;20107;-87
2023/08/08 03:25:35;;;;;;;3.92;2.72;;;;;;;12.50;100.00;99127.03;5034960;28;20075;-87
2023/08/08 03:28:01;;;;;;;4.35;2.70;;;;;;;12.66;100.00;99156.47;5052984;28;20044;-87
2023/08/08 03:30:26;;;;;;;4.07;2.70;;;;;;;12.74;100.00;99177.75;5034966;28;20020;-86
2023/08/08 03:32:51;;;;;;;6.47;3.00;;;;;;;12.51;100.00;99143.53;5053124;28;20052;-87
2023/08/08 03:35:17;;;;;;;5.07;3.15;;;;;;;12.52;100.00;99146.06;5034869;28;20021;-87
2023/08/08 03:37:42;;;;;;;5.15;2.83;;;;;;;12.67;100.00;99170.38;5052836;28;20090;-87
2023/08/08 03:40:08;;;;;;;6.03;2.83;;;;;;;12.63;100.00;99180.19;5052963;28;20033;-87
2023/08/08 03:42:34;;;;;;;3.75;3.17;;;;;;;12.63;100.00;99188.03;5052454;28;20469;-87
2023/08/08 03:44:59;;;;;;;4.25;2.92;;;;;;;12.67;100.00;99201.72;5034760;28;20037;-87
2023/08/08 03:47:26;;;;;;;4.35;2.95;;;;;;;12.65;100.00;99195.78;5052654;28;20028;-87
2023/08/08 03:49:54;;;;;;;7.13;3.17;;;;;;;12.62;100.00;99195.97;5052652;28;20025;-87
2023/08/08 03:52:20;;;;;;;6.13;2.80;;;;;;;12.61;100.00;99189.91;5034692;28;20033;-87
2023/08/08 03:54:46;;;;;;;4.95;2.47;;;;;;;12.49;100.00;99175.00;5034392;28;20070;-87
2023/08/08 03:57:11;;;;;;;3.70;2.40;;;;;;;12.51;100.00;99182.72;5034568;28;20031;-87
2023/08/08 03:59:36;;;;;;;4.25;2.80;;;;;;;12.74;100.00;99214.31;5052120;28;20021;-87
2023/08/08 04:02:02;;;;;;;6.88;3.00;;;;;;;12.59;100.00;99190.91;5052739;28;20037;-87
2023/08/08 04:04:27;;;;;;;4.38;2.95;;;;;;;12.85;100.00;99231.97;5034579;28;20017;-87
2023/08/08 04:06:52;;;;;;;6.63;2.72;;;;;;;12.83;100.00;99218.13;5049435;28;20045;-87
2023/08/08 04:09:18;;;;;;;5.75;2.33;;;;;;;13.08;100.00;99230.50;5049578;28;20094;-87
2023/08/08 04:11:43;;;;;;;4.00;2.83;;;;;;;13.28;100.00;99216.19;5049596;28;20041;-87
2023/08/08 04:14:08;;;;;;;2.60;2.40;;;;;;;13.68;100.00;99216.19;5032817;28;20056;-88
2023/08/08 04:16:34;;;;;;;4.20;2.70;;;;;;;14.03;100.00;99215.59;5032829;28;20033;-87
2023/08/08 04:18:59;;;;;;;4.97;2.83;;;;;;;14.37;100.00;99241.19;5032713;28;20032;-87
2023/08/08 04:21:27;;;;;;;3.55;2.70;;;;;;;14.30;99.11;99224.22;5032888;28;20106;-87
2023/08/08 04:23:52;;;;;;;3.80;3.13;;;;;;;14.54;98.34;99229.56;5049428;28;20134;-87
2023/08/08 04:26:18;;;;;;;4.97;2.35;;;;;;;14.82;97.09;99236.31;5032794;28;20056;-87
2023/08/08 04:28:43;;;;;;;4.55;2.70;;;;;;;15.08;95.55;99236.25;5032643;28;20037;-87
2023/08/08 04:31:08;;;;;;;4.80;2.75;;;;;;;15.41;94.83;99246.09;5049786;28;20033;-87
2023/08/08 04:33:34;;;;;;;5.38;3.00;;;;;;;15.48;94.30;99232.41;5032730;28;20047;-88
2023/08/08 04:35:59;;;;;;;5.72;3.35;;;;;;;15.62;93.92;99220.88;5049795;28;20110;-87
2023/08/08 04:38:24;;;;;;;8.68;3.33;;;;;;;15.88;92.70;99237.34;5051178;28;20037;-87
2023/08/08 04:40:50;;;;;;;6.82;2.95;;;;;;;16.33;92.08;99234.81;5051585;28;20033;-88
2023/08/08 04:43:15;;;;;;;6.88;3.35;;;;;;;17.10;88.64;99207.78;5033841;28;20029;-88
2023/08/08 04:45:40;;;;;;;7.00;2.53;;;;;;;18.56;83.81;99244.75;5051568;28;20035;-88
2023/08/08 04:48:06;;;;;;;4.82;2.70;;;;;;;20.00;78.78;99249.63;5034008;28;20422;-88
2023/08/08 04:50:31;;;;;;;4.00;2.60;;;;;;;20.93;75.29;99252.28;5033782;28;20021;-87
2023/08/08 04:52:56;;;;;;;3.60;2.22;;;;;;;20.84;74.14;99220.56;5034001;28;20021;-88
2023/08/08 04:55:22;;;;;;;4.85;2.40;;;;;;;20.66;74.29;99257.56;5033893;28;20495;-88
2023/08/08 04:57:47;;;;;;;3.22;2.25;;;;;;;20.33;74.87;99266.84;5033664;28;20484;-88
2023/08/08 05:00:14;;;;;;;2.80;2.40;;;;;;;20.09;76.17;99259.34;5033980;28;20025;-88
2023/08/08 05:02:41;;;;;;;3.40;2.25;;;;;;;20.01;75.83;99270.63;5051470;28;20039;-88
2023/08/08 05:05:06;;;;;;;3.30;2.45;;;;;;;20.18;75.47;99263.78;5051822;28;20048;-88
2023/08/08 05:07:32;;;;;;;7.38;2.78;;;;;;;21.34;72.76;99270.50;5033681;28;20025;-88
2023/08/08 05:09:58;;;;;;;4.78;2.25;;;;;;;22.87;68.38;99271.81;5033780;28;20056;-88
2023/08/08 05:12:23;;;;;;;4.20;2.45;;;;;;;23.32;66.13;99244.13;5033587;28;20036;-88
2023/08/08 05:14:48;;;;;;;3.78;2.60;;;;;;;23.34;65.69;99268.72;5051295;28;20083;-88
2023/08/08 05:17:13;;;;;;;5.07;2.28;;;;;;;22.60;67.01;99240.19;5051859;28;20526;-89
2023/08/08 05:19:39;;;;;;;3.58;2.50;;;;;;;22.29;68.12;99269.00;5033502;28;20484;-89
2023/08/08 05:22:05;;;;;;;3.47;2.15;;;;;;;21.98;69.24;99276.56;5036362;28;20487;-88
2023/08/08 05:24:30;;;;;;;6.70;3.38;;;;;;;21.93;69.35;99293.75;5055395;28;20044;-88
2023/08/08 05:26:56;;;;;;;4.18;2.55;;;;;;;22.26;67.88;99283.44;5036972;28;20021;-88
2023/08/08 05:29:21;;;;;;;3.63;2.38;;;;;;;22.84;66.20;99289.94;5055431;28;20115;-88
2023/08/08 05:31:47;;;;;;;4.18;2.60;;;;;;;22.42;65.90;99238.44;5055183;28;20027;-88
2023/08/08 05:34:13;;;;;;;3.70;2.42;;;;;;;22.31;66.40;99270.53;5037364;28;20029;-88
2023/08/08 05:36:38;;;;;;;4.25;2.50;;;;;;;21.90;67.44;99288.75;5055242;28;20055;-88
2023/08/08 05:39:03;;;;;;;5.22;2.60;;;;;;;21.36;68.72;99255.25;5037165;28;20059;-88
2023/08/08 05:41:29;;;;;;;7.13;2.40;;;;;;;21.37;69.39;99281.63;5036972;28;20025;-88
2023/08/08 05:43:54;;;;;;;2.88;2.00;;;;;;;21.33;69.21;99280.25;5054919;28;20033;-88
2023/08/08 05:46:19;;;;;;;3.75;1.85;;;;;;;21.45;68.28;99270.28;5037206;28;20037;-88
2023/08/08 05:49:06;;;;;;;3.90;2.63;;;;;;;21.70;67.51;99283.75;5056428;28;20029;-88
2023/08/08 05:51:32;;;;;;;2.70;2.25;;;;;;;21.58;67.45;99257.50;4974334;28;20038;-88
2023/08/08 05:53:57;;;;;;;7.15;2.60;;;;;;;21.60;68.29;99275.88;4975504;28;20042;-88
2023/08/08 05:56:22;;;;;;;2.40;1.75;;;;;;;21.49;68.20;99281.41;4975859;28;20114;-88
2023/08/08 05:58:48;;;;;;;4.20;2.40;;;;;;;21.46;67.75;99276.41;4974862;28;20498;-88
2023/08/08 06:01:13;;;;;;;2.83;2.15;;;;;;;21.42;68.28;99275.88;4957774;28;20066;-88
2023/08/08 06:03:38;;;;;;;2.40;2.10;;;;;;;21.39;67.85;99266.41;4973640;28;20085;-88
2023/08/08 06:06:05;;;;;;;5.10;2.42;;;;;;;21.42;68.48;99266.09;4973667;28;20085;-88
2023/08/08 06:08:31;;;;;;;2.75;1.95;;;;;;;21.63;67.78;99278.25;4957877;28;20470;-88
2023/08/08 06:10:56;;;;;;;2.53;2.30;;;;;;;21.63;67.56;99279.06;4974505;28;20569;-88
2023/08/08 06:13:21;;;;;;;6.10;2.30;;;;;;;21.40;66.79;99267.22;4974163;28;20082;-88
2023/08/08 06:15:47;;;;;;;2.58;2.20;;;;;;;21.41;67.16;99283.00;4979161;28;20026;-88
2023/08/08 06:18:12;;;;;;;3.13;2.00;;;;;;;21.42;66.89;99278.53;4982532;28;20087;-88
2023/08/08 06:20:37;;;;;;;3.28;2.10;;;;;;;21.38;65.50;99258.63;4981883;28;20041;-88
2023/08/08 06:23:03;;;;;;;2.88;2.20;;;;;;;21.55;66.38;99264.91;5042585;28;20037;-88
2023/08/08 06:25:28;;;;;;;3.80;2.30;;;;;;;21.82;66.46;99272.75;5055329;28;20025;-88
2023/08/08 06:27:54;;;;;;;2.95;2.40;;;;;;;21.81;65.55;99227.88;5055043;28;20036;-88
2023/08/08 06:30:19;;;;;;;2.97;2.38;;;;;;;22.26;65.03;99267.53;5046731;28;20037;-88
2023/08/08 06:32:44;;;;;;;2.75;2.05;;;;;;;22.03;64.74;99203.50;5038971;28;20361;-87
2023/08/08 06:35:10;;;;;;;2.88;2.20;;;;;;;22.35;63.57;99224.13;5039323;28;20033;-88
2023/08/08 06:37:35;;;;;;;3.33;2.30;;;;;;;22.70;62.65;99251.50;5055349;28;20422;-88
2023/08/08 06:40:01;;;;;;;3.58;2.22;;;;;;;22.81;62.42;99250.41;5036391;28;20063;-88
2023/08/08 06:42:26;;;;;;;5.63;2.08;;;;;;;22.95;61.95;99230.41;5054271;28;20021;-88
2023/08/08 06:44:52;;;;;;;4.63;2.25;;;;;;;23.46;61.15;99263.06;5054753;28;20027;-88
2023/08/08 06:47:17;;;;;;;5.38;2.22;;;;;;;23.78;60.75;99255.19;5054741;28;20472;-87
2023/08/08 06:49:42;;;;;;;2.40;1.80;;;;;;;24.04;59.89;99246.19;5056318;28;20028;-88
2023/08/08 06:52:08;;;;;;;4.00;2.17;;;;;;;24.15;59.07;99246.69;5038207;28;20127;-87
2023/08/08 06:54:33;;;;;;;3.35;1.85;;;;;;;24.45;59.04;99252.31;5037806;28;20041;-88
2023/08/08 06:56:59;;;;;;;3.90;1.60;;;;;;;24.63;58.27;99222.81;5037945;28;20253;-87
2023/08/08 06:59:26;;;;;;;3.00;2.08;;;;;;;24.94;57.06;99222.00;5056411;28;20025;-88
2023/08/08 07:01:51;;;;;;;2.88;2.13;;;;;;;25.50;56.48;99238.72;5036898;28;20021;-88
2023/08/08 07:04:18;;;;;;;2.80;1.90;;;;;;;25.97;55.56;99257.19;5038115;28;20029;-88
2023/08/08 07:06:44;;;;;;;2.83;1.88;;;;;;;26.15;54.10;99216.84;5037659;28;20434;-88
2023/08/08 07:09:10;;;;;;;2.03;1.80;;;;;;;26.77;53.73;99255.75;5035907;28;20032;-88
2023/08/08 07:11:36;;;;;;;1.60;1.50;;;;;;;27.45;51.74;99259.06;5054086;28;20057;-88
2023/08/08 07:14:02;;;;;;;2.13;1.80;;;;;;;27.69;49.98;99261.38;5053937;28;20056;-88
2023/08/08 07:16:27;;;;;;;2.88;1.80;;;;;;;28.29;49.49;99246.66;5054033;28;20021;-88
2023/08/08 07:18:53;;;;;;;2.10;1.70;;;;;;;29.66;48.35;99235.09;5053861;28;20029;-88
2023/08/08 07:21:18;;;;;;;1.83;1.67;;;;;;;30.95;47.67;99253.38;5053616;28;20021;-88
2023/08/08 07:23:44;;;;;;;2.40;1.77;;;;;;;31.93;46.17;99244.13;5053822;28;20059;-88
2023/08/08 07:26:10;;;;;;;1.55;1.40;;;;;;;32.91;44.66;99241.50;5053781;28;20402;-85
2023/08/08 07:28:35;;;;;;;2.72;1.80;;;;;;;33.18;43.09;99236.59;5053710;28;20028;-88
2023/08/08 07:31:04;;;;;;;1.70;1.60;;;;;;;31.94;43.15;99240.38;5054372;28;20033;-88
2023/08/08 07:33:29;;;;;;;3.05;1.60;;;;;;;30.70;43.64;99249.69;5053507;28;20033;-88
2023/08/08 07:35:54;;;;;;;1.60;1.50;;;;;;;30.75;44.55;99266.06;5036264;28;20021;-88
2023/08/08 07:38:20;;;;;;;1.77;1.45;;;;;;;31.56;43.47;99227.81;5053120;28;20112;-88
2023/08/08 07:40:45;;;;;;;1.42;1.33;;;;;;;33.00;42.71;99242.88;5053739;28;20116;-86
2023/08/08 07:43:11;;;;;;;2.03;1.65;;;;;;;34.21;41.47;99237.31;5054515;28;20040;-86
2023/08/08 07:45:37;;;;;;;1.92;1.75;;;;;;;35.17;40.61;99259.44;5054170;28;20029;-87
2023/08/08 07:48:03;;;;;;;1.92;1.77;;;;;;;35.37;40.68;99253.59;5037067;28;20446;-87
2023/08/08 07:50:28;;;;;;;2.10;1.90;;;;;;;35.85;39.88;99269.34;5037349;28;20380;-87
2023/08/08 07:52:53;;;;;;;3.05;1.67;;;;;;;34.80;39.52;99253.50;5055223;28;20040;-86
2023/08/08 07:55:19;;;;;;;2.20;1.70;;;;;;;33.34;40.48;99259.44;5037018;28;20594;-87
2023/08/08 07:57:45;;;;;;;3.08;1.65;;;;;;;31.67;41.74;99272.06;5035540;28;20028;-87
2023/08/08 08:00:13;;;;;;;1.70;1.60;;;;;;;30.49;43.64;99253.47;5035724;28;20148;-86
2023/08/08 08:02:41;;;;;;;1.83;1.60;;;;;;;31.26;44.16;99267.91;5054053;28;20503;-87
2023/08/08 08:05:07;;;;;;;4.65;2.13;;;;;;;32.03;43.05;99244.47;5054041;28;20121;-86
2023/08/08 08:07:36;;;;;;;2.22;2.03;;;;;;;31.63;43.59;99260.91;5055693;28;20132;-87
2023/08/08 08:10:03;;;;;;;2.85;1.80;;;;;;;31.12;43.75;99255.56;5036046;28;20029;-86
2023/08/08 08:12:29;;;;;;;2.67;1.80;;;;;;;30.68;44.45;99241.88;5036660;28;20400;-86
2023/08/08 08:14:55;;;;;;;1.70;1.60;;;;;;;30.65;44.78;99255.72;5036939;28;20021;-86
2023/08/08 08:17:20;;;;;;;2.95;1.75;;;;;;;30.79;44.75;99230.47;5036604;28;20040;-87
2023/08/08 08:19:46;;;;;;;1.85;1.65;;;;;;;30.39;44.52;99229.75;5055155;28;20476;-86
2023/08/08 08:22:11;;;;;;;3.05;1.70;;;;;;;29.60;45.62;99254.72;5037554;28;20056;-87
2023/08/08 08:24:36;;;;;;;2.20;1.77;;;;;;;28.60;47.24;99258.81;5036564;28;20025;-87
2023/08/08 08:27:02;;;;;;;3.00;2.25;;;;;;;27.67;48.50;99267.91;5053462;28;20033;-90
2023/08/08 08:29:27;;;;;;;2.17;1.88;;;;;;;26.94;49.27;99257.22;5039203;28;20501;-88
2023/08/08 08:31:52;;;;;;;4.40;2.20;;;;;;;26.49;50.15;99251.03;5054386;28;20019;-89
2023/08/08 08:34:18;;;;;;;1.58;1.33;;;;;;;26.15;51.10;99248.88;5054616;28;20447;-90
2023/08/08 08:36:43;;;;;;;2.15;1.60;;;;;;;25.80;51.66;99240.50;5035552;28;20029;-88
2023/08/08 08:39:09;;;;;;;2.20;1.73;;;;;;;25.43;52.56;99224.41;5034582;28;20029;-88
2023/08/08 08:41:36;;;;;;;2.67;1.73;;;;;;;25.35;53.38;99225.28;5034655;28;20029;-89
2023/08/08 08:44:04;;;;;;;4.80;1.95;;;;;;;25.11;53.90;99207.63;5034071;28;20036;-87
2023/08/08 08:46:30;;;;;;;3.60;2.03;;;;;;;25.22;53.62;99233.88;5033968;28;20025;-89
2023/08/08 08:48:59;;;;;;;1.77;1.60;;;;;;;25.13;52.58;99253.59;5035329;28;20029;-88
2023/08/08 08:51:25;;;;;;;2.70;1.90;;;;;;;24.86;52.87;99230.84;5037557;28;20017;-85
2023/08/08 08:53:51;;;;;;;2.85;1.60;;;;;;;24.88;53.50;99242.19;5033658;28;20052;-88
2023/08/08 08:56:43;;;;;;;2.17;1.65;;;;;;;24.56;54.47;99212.00;5056083;28;20391;-94
2023/08/08 08:59:28;;;;;;;4.90;2.88;;;;;;;24.76;55.40;99243.56;4958073;28;20199;-88
2023/08/08 09:01:54;;;;;;;2.08;1.52;;;;;;;24.74;54.55;99248.25;4958337;29;20039;-88
2023/08/08 09:04:21;;;;;;;2.97;1.67;;;;;;;24.46;54.41;99227.34;4957056;29;20045;-89
2023/08/08 09:06:48;;;;;;;2.75;1.58;;;;;;;24.33;54.34;99217.22;4955561;29;20090;-90
2023/08/08 09:09:15;;;;;;;1.73;1.50;;;;;;;24.54;54.89;99253.94;4956708;29;20555;-93
2023/08/08 09:11:44;;;;;;;3.60;1.65;;;;;;;24.49;54.43;99248.31;4958981;29;20067;-93
2023/08/08 09:14:21;;;;;;;2.00;1.60;;;;;;;24.54;55.87;99247.81;4956881;29;20059;-89
2023/08/08 09:16:47;;;;;;;2.38;1.58;;;;;;;24.46;55.94;99226.53;4955846;29;20647;-94
2023/08/08 09:19:17;;;;;;;2.15;1.55;;;;;;;24.69;55.47;99254.06;4956808;29;20039;-94
2023/08/08 09:21:43;;;;;;;2.55;1.40;;;;;;;24.74;55.45;99248.25;4956012;29;20058;-92
2023/08/08 09:24:09;;;;;;;1.58;1.48;;;;;;;24.61;54.56;99232.81;4956774;29;20035;-93
2023/08/08 09:26:35;;;;;;;1.50;1.40;;;;;;;24.49;54.58;99234.19;4959398;29;20094;-91
2023/08/08 09:29:02;;;;;;;2.25;1.50;;;;;;;24.43;55.23;99225.03;4956509;29;20071;-86
2023/08/08 09:31:28;;;;;;;2.60;1.50;;;;;;;24.60;54.95;99268.41;4957494;29;20511;-85
2023/08/08 09:33:54;;;;;;;2.55;1.67;;;;;;;24.29;54.96;99228.38;4955582;29;20489;-86
2023/08/08 09:36:20;;;;;;;3.55;1.80;;;;;;;24.27;55.45;99225.03;4957963;29;20047;-87
2023/08/08 09:38:46;;;;;;;3.40;1.65;;;;;;;24.34;55.23;99245.47;4957221;29;20061;-89
2023/08/08 09:41:12;;;;;;;1.70;1.60;;;;;;;24.22;55.82;99246.81;4955402;29;20414;-90
2023/08/08 09:43:37;;;;;;;2.10;1.90;;;;;;;24.28;55.83;99264.78;4990896;28;20496;-87
2023/08/08 09:46:03;;;;;;;2.17;1.70;;;;;;;24.11;55.77;99242.69;5013651;28;20045;-88
2023/08/08 09:48:32;;;;;;;4.05;1.90;;;;;;;23.97;55.80;99235.38;4998223;28;20034;-86
2023/08/08 09:51:01;;;;;;;2.95;1.63;;;;;;;24.04;55.75;99251.50;4996433;28;20058;-87
2023/08/08 09:53:27;;;;;;;3.13;1.70;;;;;;;23.77;55.05;99244.72;5013106;28;20056;-86
2023/08/08 09:55:57;;;;;;;3.33;1.90;;;;;;;23.61;55.83;99256.97;5034589;28;20041;-87
2023/08/08 09:58:23;;;;;;;1.80;1.63;;;;;;;23.62;56.10;99274.56;5037489;28;20029;-89
2023/08/08 10:00:52;;;;;;;1.50;1.40;;;;;;;23.60;56.60;99270.44;5037538;28;20021;-83
2023/08/08 10:03:19;;;;;;;2.30;1.58;;;;;;;23.29;56.13;99211.72;5055570;28;20037;-84
2023/08/08 10:05:44;;;;;;;4.40;1.77;;;;;;;23.67;56.10;99241.38;5054513;28;20480;-87
2023/08/08 10:08:10;;;;;;;1.48;1.20;;;;;;;23.62;56.16;99240.00;5035567;28;20029;-87
2023/08/08 10:10:37;;;;;;;2.17;1.67;;;;;;;23.61;56.33;99234.88;5054793;28;20029;-86
2023/08/08 10:13:03;;;;;;;1.67;1.42;;;;;;;23.60;56.26;99212.78;5054366;28;20045;-85
2023/08/08 10:15:28;;;;;;;4.50;1.70;;;;;;;23.60;55.41;99212.78;5058035;28;20151;-88
2023/08/08 10:17:57;;;;;;;1.90;1.55;;;;;;;23.69;56.12;99218.13;5055131;28;20376;-86
2023/08/08 10:20:25;;;;;;;3.88;1.40;;;;;;;23.74;56.31;99229.91;5038096;28;20021;-85
2023/08/08 10:22:52;;;;;;;2.38;1.85;;;;;;;23.64;56.10;99229.22;5058972;28;20033;-86
2023/08/08 10:25:19;;;;;;;3.42;1.65;;;;;;;23.39;55.64;99233.69;5055949;28;20036;-85
2023/08/08 10:27:45;;;;;;;1.50;1.40;;;;;;;23.03;55.41;99215.31;5056311;28;20043;-83
2023/08/08 10:30:11;;;;;;;2.78;1.65;;;;;;;23.10;55.90;99260.69;5054857;28;20021;-82
2023/08/08 10:32:48;;;;;;;2.25;1.67;;;;;;;22.81;56.30;99255.72;5054459;28;20120;-82
2023/08/08 10:35:14;;;;;;;3.90;1.75;;;;;;;22.67;57.28;99267.78;5054463;28;20087;-83
2023/08/08 10:37:40;;;;;;;2.80;1.85;;;;;;;22.38;57.50;99246.88;5054676;28;20033;-83
2023/08/08 10:40:07;;;;;;;2.63;1.80;;;;;;;22.34;58.59;99256.97;5038043;28;20500;-83
2023/08/08 10:42:33;;;;;;;3.55;1.73;;;;;;;22.31;59.20;99251.13;5057723;28;20032;-82
2023/08/08 10:45:02;;;;;;;2.58;1.52;;;;;;;22.33;58.62;99251.78;5038930;28;20079;-83
2023/08/08 10:47:34;;;;;;;3.05;1.80;;;;;;;22.35;58.66;99245.34;5039043;28;20031;-83
2023/08/08 10:50:09;;;;;;;1.60;1.50;;;;;;;22.36;58.32;99251.50;5057117;28;20076;-82
2023/08/08 10:52:55;;;;;;;2.22;1.77;;;;;;;22.30;58.39;99246.81;5057111;28;20548;-82
2023/08/08 10:55:26;;;;;;;3.28;1.83;;;;;;;22.21;58.92;99222.06;5038312;28;20472;-82
2023/08/08 10:58:08;;;;;;;2.42;1.70;;;;;;;22.31;58.61;99232.56;5057370;28;20060;-82
2023/08/08 11:00:36;;;;;;;1.85;1.63;;;;;;;22.04;58.56;99210.47;5055506;28;20032;-82
2023/08/08 11:03:06;;;;;;;2.50;1.52;;;;;;;22.13;59.03;99249.38;5056396;28;20041;-81
2023/08/08 11:05:34;;;;;;;3.40;1.77;;;;;;;21.67;59.85;99187.66;5037770;28;20056;-85
2023/08/08 11:08:00;;;;;;;1.65;1.50;;;;;;;21.76;61.47;99216.88;5056421;28;20033;-83
2023/08/08 11:10:31;;;;;;;1.80;1.52;;;;;;;21.86;60.48;99236.19;5055308;28;20028;-82
2023/08/08 11:13:01;;;;;;;1.60;1.50;;;;;;;21.66;60.56;99224.94;5038080;28;20056;-84
2023/08/08 11:15:27;;;;;;;2.08;1.95;;;;;;;21.52;61.23;99207.75;5053745;28;20021;-84
2023/08/08 11:17:56;;;;;;;2.03;1.50;;;;;;;21.64;61.12;99203.03;5053021;28;20031;-84
2023/08/08 11:20:22;;;;;;;2.45;1.98;;;;;;;21.81;60.70;99231.34;5052819;28;20392;-81
2023/08/08 11:22:56;;;;;;;1.73;1.63;;;;;;;21.89;60.11;99227.94;5053854;28;20025;-79
2023/08/08 11:25:22;;;;;;;2.70;1.70;;;;;;;21.93;59.73;99231.94;5053899;28;20028;-79